Time;durP1;ratioP1;P1;durP2;ratioP2;P2;SDS_P1;SDS_P2;PMS_P1;PMS_P2;Temp;Humidity;BMP_temperature;BMP_pressure;BME280_temperature;BME280_humidity;BME280_pressure;Samples;Min_cycle;Max_cycle;Signal;HPM_P1;HPM_P2
2022/11/19 06:13:11;;;;;;;13.23;4.22;;;;;;;;;;5054747;28;20601;-47
2022/11/19 06:15:37;;;;;;;7.28;4.03;;;;;;;;;;5023130;28;20772;-48
2022/11/19 06:18:03;;;;;;;10.75;4.70;;;;;;;;;;5022188;28;20318;-49
2022/11/19 06:20:29;;;;;;;12.50;4.32;;;;;;;;;;5015279;28;20184;-50
2022/11/19 06:22:55;;;;;;;11.45;4.63;;;;;;;;;;5017716;28;20235;-51
2022/11/19 06:25:21;;;;;;;7.18;4.30;;;;;;;;;;5014757;28;20267;-48
2022/11/19 06:27:46;;;;;;;9.77;4.65;;;;;;;;;;5016660;28;20183;-48
2022/11/19 06:30:13;;;;;;;6.70;4.25;;;;;;;;;;5016329;28;20176;-49
2022/11/19 06:32:39;;;;;;;8.30;4.15;;;;;;;;;;5011230;28;20211;-50
2022/11/19 06:35:05;;;;;;;7.55;4.07;;;;;;;;;;5029407;28;20180;-47
2022/11/19 06:37:31;;;;;;;7.30;3.55;;;;;;;;;;5028705;28;20184;-50
2022/11/19 06:39:57;;;;;;;5.65;4.00;;;;;;;;;;5027447;28;20181;-49
2022/11/19 06:42:35;;;;;;;11.38;4.30;;;;;;;;;;5027536;28;20199;-50
2022/11/19 06:45:05;;;;;;;7.70;3.55;;;;;;;;;;5029628;28;20267;-51
2022/11/19 06:47:32;;;;;;;7.75;3.90;;;;;;;;;;5031853;28;20211;-49
2022/11/19 06:49:58;;;;;;;12.48;4.10;;;;;;;;;;5029946;28;20282;-50
2022/11/19 06:52:24;;;;;;;6.63;3.42;;;;;;;;;;5025822;28;20307;-50
2022/11/19 06:54:50;;;;;;;9.88;3.33;;;;;;;;;;5027762;28;20262;-50
2022/11/19 06:57:16;;;;;;;12.43;8.75;;;;;;;;;;5028281;28;20176;-50
2022/11/19 06:59:42;;;;;;;17.80;10.38;;;;;;;;;;5024057;28;20190;-57
2022/11/19 07:02:09;;;;;;;11.18;6.50;;;;;;;;;;5021389;28;20191;-51
2022/11/19 07:04:35;;;;;;;16.52;6.18;;;;;;;;;;5019240;28;20556;-51
2022/11/19 07:07:01;;;;;;;8.50;4.65;;;;;;;;;;5029979;28;20192;-51
2022/11/19 07:09:27;;;;;;;8.25;4.80;;;;;;;;;;5029655;28;20179;-51
2022/11/19 07:11:53;;;;;;;11.63;5.85;;;;;;;;;;5022990;28;20224;-51
2022/11/19 07:14:19;;;;;;;10.65;5.85;;;;;;;;;;5023576;28;20259;-51
2022/11/19 07:16:45;;;;;;;8.63;5.13;;;;;;;;;;5026490;28;20184;-51
2022/11/19 07:19:11;;;;;;;8.68;6.10;;;;;;;;;;5029893;28;20210;-51
2022/11/19 07:21:37;;;;;;;9.60;5.30;;;;;;;;;;5026904;28;20175;-51
2022/11/19 07:24:04;;;;;;;14.07;7.20;;;;;;;;;;5022488;28;20540;-51
2022/11/19 07:26:32;;;;;;;14.93;5.75;;;;;;;;;;5006027;28;20185;-52
2022/11/19 07:28:59;;;;;;;15.40;4.93;;;;;;;;;;5018523;28;20180;-52
2022/11/19 07:31:25;;;;;;;13.25;6.47;;;;;;;;;;5007689;28;20255;-52
2022/11/19 07:33:51;;;;;;;11.52;5.45;;;;;;;;;;5012478;28;20193;-52
2022/11/19 07:36:17;;;;;;;11.00;4.45;;;;;;;;;;5012008;28;20176;-51
2022/11/19 07:38:43;;;;;;;13.25;4.68;;;;;;;;;;5015462;28;20194;-51
2022/11/19 07:43:53;;;;;;;7.68;4.15;;;;;;;;;;5017641;28;20195;-52
2022/11/19 07:46:19;;;;;;;12.43;4.63;;;;;;;;;;5009362;28;20185;-52
2022/11/19 07:48:45;;;;;;;11.18;4.78;;;;;;;;;;5013464;28;20215;-52
2022/11/19 07:51:11;;;;;;;15.32;4.43;;;;;;;;;;5013707;28;20200;-52
2022/11/19 07:53:37;;;;;;;12.10;3.95;;;;;;;;;;5015405;28;20544;-52
2022/11/19 07:56:03;;;;;;;10.10;4.63;;;;;;;;;;5007088;28;20456;-52
2022/11/19 07:58:29;;;;;;;13.13;4.57;;;;;;;;;;5015456;28;20196;-52
2022/11/19 08:00:55;;;;;;;9.60;4.00;;;;;;;;;;5015256;28;20517;-53
2022/11/19 08:03:21;;;;;;;9.50;3.95;;;;;;;;;;5010291;28;20557;-52
2022/11/19 08:05:47;;;;;;;12.45;4.07;;;;;;;;;;5014928;28;20184;-52
2022/11/19 08:08:13;;;;;;;9.15;3.97;;;;;;;;;;5016713;28;20199;-53
2022/11/19 08:10:39;;;;;;;10.32;3.83;;;;;;;;;;5006324;28;20185;-53
2022/11/19 08:13:05;;;;;;;13.18;3.70;;;;;;;;;;5012434;28;20205;-53
2022/11/19 08:15:32;;;;;;;9.68;4.57;;;;;;;;;;5002328;28;20180;-52
2022/11/19 08:18:14;;;;;;;8.60;3.85;;;;;;;;;;5003791;28;20208;-52
2022/11/19 08:20:44;;;;;;;7.78;3.80;;;;;;;;;;5002708;28;20173;-53
2022/11/19 08:23:10;;;;;;;12.77;4.03;;;;;;;;;;5006632;28;20770;-53
2022/11/19 08:25:36;;;;;;;7.07;3.83;;;;;;;;;;5009831;28;20188;-52
2022/11/19 08:28:03;;;;;;;12.75;4.20;;;;;;;;;;5013462;28;20184;-52
2022/11/19 08:30:29;;;;;;;10.00;4.10;;;;;;;;;;5004641;28;20239;-52
2022/11/19 08:32:55;;;;;;;15.52;4.28;;;;;;;;;;5008383;28;20207;-53
2022/11/19 08:35:21;;;;;;;10.35;4.07;;;;;;;;;;5007652;28;20181;-54
2022/11/19 08:37:47;;;;;;;9.80;3.90;;;;;;;;;;5008265;28;20176;-52
2022/11/19 08:40:14;;;;;;;8.43;4.30;;;;;;;;;;5005608;28;20189;-52
2022/11/19 08:42:58;;;;;;;13.00;4.43;;;;;;;;;;5009661;28;20188;-52
2022/11/19 08:45:45;;;;;;;10.93;5.05;;;;;;;;;;5005468;28;20181;-52
2022/11/19 08:48:13;;;;;;;12.50;4.72;;;;;;;;;;5009997;28;20464;-53
2022/11/19 08:50:41;;;;;;;15.57;5.05;;;;;;;;;;5001679;28;20177;-53
2022/11/19 08:53:07;;;;;;;11.10;3.97;;;;;;;;;;5007231;28;20209;-53
2022/11/19 08:55:33;;;;;;;9.27;4.00;;;;;;;;;;5011140;28;20181;-53
2022/11/19 08:58:00;;;;;;;11.07;4.93;;;;;;;;;;5011506;28;20192;-53
2022/11/19 09:00:26;;;;;;;10.18;4.22;;;;;;;;;;5020248;28;20223;-53
2022/11/19 09:02:52;;;;;;;15.98;4.40;;;;;;;;;;5011041;28;20192;-53
2022/11/19 09:05:18;;;;;;;14.32;4.22;;;;;;;;;;4998364;28;20304;-55
2022/11/19 09:07:43;;;;;;;14.57;5.03;;;;;;;;;;5004073;28;20196;-53
2022/11/19 09:10:09;;;;;;;19.23;4.47;;;;;;;;;;5005721;28;20272;-53
2022/11/19 09:12:36;;;;;;;15.38;4.70;;;;;;;;;;5005057;28;20208;-53
2022/11/19 09:15:02;;;;;;;17.98;4.95;;;;;;;;;;5008808;28;20504;-53
2022/11/19 09:17:27;;;;;;;13.95;4.95;;;;;;;;;;5012249;28;20200;-53
2022/11/19 09:19:54;;;;;;;11.25;4.78;;;;;;;;;;5002528;28;20180;-53
2022/11/19 09:22:20;;;;;;;12.77;4.22;;;;;;;;;;5007643;28;20232;-53
2022/11/19 09:24:46;;;;;;;16.33;4.38;;;;;;;;;;5005929;28;20288;-53
2022/11/19 09:27:12;;;;;;;15.90;4.25;;;;;;;;;;5008609;28;20679;-53
2022/11/19 09:29:38;;;;;;;13.63;4.40;;;;;;;;;;5008954;28;20223;-53
2022/11/19 09:32:04;;;;;;;10.27;3.65;;;;;;;;;;5000990;28;20208;-53
2022/11/19 09:34:30;;;;;;;14.27;4.47;;;;;;;;;;5007841;28;20192;-53
2022/11/19 09:36:57;;;;;;;7.05;4.10;;;;;;;;;;5010470;28;20572;-53
2022/11/19 09:39:23;;;;;;;9.48;4.40;;;;;;;;;;5009705;28;20459;-53
2022/11/19 09:41:56;;;;;;;9.90;4.28;;;;;;;;;;5009436;28;20187;-53
2022/11/19 09:44:28;;;;;;;13.23;3.80;;;;;;;;;;5005233;28;20460;-53
2022/11/19 09:47:06;;;;;;;10.68;4.30;;;;;;;;;;5011943;28;20279;-53
2022/11/19 09:50:01;;;;;;;11.32;4.50;;;;;;;;;;5013707;28;20188;-53
2022/11/19 09:52:29;;;;;;;7.05;4.05;;;;;;;;;;5012333;28;20271;-53
2022/11/19 09:54:56;;;;;;;9.18;3.90;;;;;;;;;;5008928;28;20187;-53
2022/11/19 09:57:57;;;;;;;11.88;5.47;;;;;;;;;;5008919;28;20185;-53
2022/11/19 10:00:26;;;;;;;9.88;4.95;;;;;;;;;;5031890;28;20184;-53
2022/11/19 10:02:52;;;;;;;9.13;5.50;;;;;;;;;;5011551;28;20517;-53
2022/11/19 10:05:27;;;;;;;35.22;5.75;;;;;;;;;;5002489;28;20181;-53
2022/11/19 10:07:59;;;;;;;9.85;4.60;;;;;;;;;;5015009;28;20208;-53
2022/11/19 10:10:42;;;;;;;8.07;5.75;;;;;;;;;;5008759;28;20173;-53
2022/11/19 10:13:34;;;;;;;8.07;5.35;;;;;;;;;;5009405;28;20335;-53
2022/11/19 10:16:12;;;;;;;9.07;5.40;;;;;;;;;;5007456;28;20263;-53
2022/11/19 10:18:46;;;;;;;7.97;5.30;;;;;;;;;;5014455;28;20271;-53
2022/11/19 10:21:27;;;;;;;7.35;5.15;;;;;;;;;;5014645;28;20455;-53
2022/11/19 10:24:16;;;;;;;8.13;5.20;;;;;;;;;;5008774;28;20188;-53
2022/11/19 10:26:44;;;;;;;9.05;4.88;;;;;;;;;;5012454;28;20231;-53
2022/11/19 10:29:18;;;;;;;9.90;6.10;;;;;;;;;;5010917;28;20203;-53
2022/11/19 10:31:45;;;;;;;11.88;6.68;;;;;;;;;;5013787;28;20208;-53
2022/11/19 10:34:32;;;;;;;10.45;5.97;;;;;;;;;;5011190;28;20189;-53
2022/11/19 10:37:17;;;;;;;9.38;5.85;;;;;;;;;;5010374;28;20464;-53
2022/11/19 10:39:51;;;;;;;8.23;5.65;;;;;;;;;;5007671;28;20505;-53
2022/11/19 10:42:17;;;;;;;14.95;5.38;;;;;;;;;;5008232;28;20281;-53
2022/11/19 10:44:49;;;;;;;12.30;5.93;;;;;;;;;;5005161;28;20585;-53
2022/11/19 10:47:23;;;;;;;9.18;5.18;;;;;;;;;;5012606;28;20493;-53
2022/11/19 10:49:53;;;;;;;8.55;5.05;;;;;;;;;;5013177;28;20450;-53
2022/11/19 10:52:25;;;;;;;11.65;4.82;;;;;;;;;;5006473;28;20294;-53
2022/11/19 10:54:53;;;;;;;6.97;4.68;;;;;;;;;;5007529;28;20176;-53
2022/11/19 10:57:20;;;;;;;9.88;5.15;;;;;;;;;;5006800;28;20190;-53
2022/11/19 10:59:47;;;;;;;10.57;5.03;;;;;;;;;;5016655;28;20540;-53
2022/11/19 11:02:20;;;;;;;9.10;5.07;;;;;;;;;;5014030;28;20191;-53
2022/11/19 11:04:59;;;;;;;9.93;4.93;;;;;;;;;;5012525;28;20181;-53
2022/11/19 11:07:43;;;;;;;9.15;5.00;;;;;;;;;;5015025;28;20180;-53
2022/11/19 11:10:26;;;;;;;9.35;4.63;;;;;;;;;;5015110;28;20207;-53
2022/11/19 11:15:48;;;;;;;6.15;5.22;;;;;;;;;;5008636;28;20186;-53
2022/11/19 11:18:14;;;;;;;7.43;4.80;;;;;;;;;;5018076;28;20926;-53
2022/11/19 11:20:50;;;;;;;12.63;5.28;;;;;;;;;;5013301;28;20188;-53
2022/11/19 11:23:17;;;;;;;7.88;4.85;;;;;;;;;;5009536;28;20203;-53
2022/11/19 11:25:51;;;;;;;5.78;4.60;;;;;;;;;;5009327;28;20185;-53
2022/11/19 11:28:18;;;;;;;9.27;4.60;;;;;;;;;;5016812;28;20184;-53
2022/11/19 11:30:57;;;;;;;8.02;4.70;;;;;;;;;;5014063;28;20236;-53
2022/11/19 11:33:23;;;;;;;6.97;4.68;;;;;;;;;;5008853;28;20176;-53
2022/11/19 11:35:50;;;;;;;7.63;4.68;;;;;;;;;;5012713;28;20227;-53
2022/11/19 11:38:19;;;;;;;10.20;4.72;;;;;;;;;;5017258;28;20251;-53
2022/11/19 11:41:03;;;;;;;7.57;4.60;;;;;;;;;;5016124;28;20180;-53
2022/11/19 11:43:29;;;;;;;7.65;4.90;;;;;;;;;;5012529;28;20185;-53
2022/11/19 11:46:00;;;;;;;8.05;4.70;;;;;;;;;;5015780;28;20439;-53
2022/11/19 11:48:30;;;;;;;10.95;5.30;;;;;;;;;;5016658;28;20176;-53
2022/11/19 11:50:56;;;;;;;7.22;4.93;;;;;;;;;;5009926;28;20185;-53
2022/11/19 11:53:32;;;;;;;7.90;4.68;;;;;;;;;;5009694;28;20571;-53
2022/11/19 11:55:59;;;;;;;6.40;4.65;;;;;;;;;;5012971;28;20177;-53
2022/11/19 11:58:25;;;;;;;12.15;5.15;;;;;;;;;;5016980;28;20247;-53
2022/11/19 12:00:53;;;;;;;10.43;5.10;;;;;;;;;;5013665;28;20835;-54
2022/11/19 12:03:19;;;;;;;8.15;4.88;;;;;;;;;;5012392;28;20277;-54
2022/11/19 12:05:51;;;;;;;11.95;5.05;;;;;;;;;;5012598;28;20754;-54
2022/11/19 12:08:27;;;;;;;9.65;5.18;;;;;;;;;;5008979;28;20195;-54
2022/11/19 12:10:56;;;;;;;5.68;4.40;;;;;;;;;;5015069;28;20188;-54
2022/11/19 12:13:22;;;;;;;10.23;4.43;;;;;;;;;;5015600;28;20192;-54
2022/11/19 12:15:56;;;;;;;9.68;5.10;;;;;;;;;;5014316;28;20180;-54
2022/11/19 12:18:34;;;;;;;10.80;4.78;;;;;;;;;;5016318;28;20202;-54
2022/11/19 12:21:08;;;;;;;9.25;4.72;;;;;;;;;;5003278;28;20185;-54
2022/11/19 12:24:01;;;;;;;12.18;5.18;;;;;;;;;;5014996;28;20208;-54
2022/11/19 12:26:46;;;;;;;7.72;4.68;;;;;;;;;;5007116;28;20180;-54
2022/11/19 12:29:19;;;;;;;8.07;4.72;;;;;;;;;;5012853;28;20576;-54
2022/11/19 12:31:51;;;;;;;6.45;4.70;;;;;;;;;;5012169;28;20196;-54
2022/11/19 12:34:23;;;;;;;6.50;4.60;;;;;;;;;;5011405;28;20184;-54
2022/11/19 12:36:57;;;;;;;6.63;5.00;;;;;;;;;;5012350;28;20564;-54
2022/11/19 12:39:36;;;;;;;6.93;4.60;;;;;;;;;;5007256;28;20184;-55
2022/11/19 12:42:10;;;;;;;9.80;5.35;;;;;;;;;;5014524;28;20180;-55
2022/11/19 12:44:58;;;;;;;10.18;5.43;;;;;;;;;;5012997;28;20196;-54
2022/11/19 12:47:24;;;;;;;10.52;5.20;;;;;;;;;;5014659;28;20181;-54
2022/11/19 12:49:56;;;;;;;11.93;5.00;;;;;;;;;;5024118;28;20187;-54
2022/11/19 12:52:34;;;;;;;8.77;5.07;;;;;;;;;;5010762;28;20303;-55
2022/11/19 12:55:04;;;;;;;10.43;5.18;;;;;;;;;;5007650;28;20196;-55
2022/11/19 12:57:42;;;;;;;10.15;5.25;;;;;;;;;;5010904;28;20173;-55
2022/11/19 13:00:17;;;;;;;6.65;4.72;;;;;;;;;;5021531;28;20180;-55
2022/11/19 13:02:55;;;;;;;9.75;4.95;;;;;;;;;;5005653;28;20190;-55
2022/11/19 13:05:27;;;;;;;11.82;5.38;;;;;;;;;;5006520;28;20192;-55
2022/11/19 13:08:08;;;;;;;14.80;6.40;;;;;;;;;;5015776;28;20555;-55
2022/11/19 13:10:39;;;;;;;15.45;6.63;;;;;;;;;;5008433;28;20224;-56
2022/11/19 13:13:07;;;;;;;11.77;6.85;;;;;;;;;;5008466;28;20580;-56
2022/11/19 13:15:37;;;;;;;14.60;6.65;;;;;;;;;;5008690;28;20181;-59
2022/11/19 13:18:04;;;;;;;14.43;6.65;;;;;;;;;;5003468;28;20185;-59
